Date,TemperatureHighF,TemperatureAvgF,TemperatureLowF,DewpointHighF,DewpointAvgF,DewpointLowF,HumidityHigh,HumidityAvg,HumidityLow,PressureMaxIn,PressureMinIn,WindSpeedMaxMPH,WindSpeedAvgMPH,GustSpeedMaxMPH,PrecipitationSumIn
2013-1-1,49,45,41,43,36,24,97,74,41,30.09,29.88,16,3,16,0.27
2013-1-2,47,41,36,43,36,27,97,82,58,30.19,29.93,10,0,10,0.10
2013-1-3,44,36,29,34,30,24,93,81,63,30.25,30.15,6,0,6,0.00
2013-1-4,48,36,29,26,23,20,76,60,35,30.31,30.19,18,4,18,0.00
2013-1-5,51,39,27,32,25,21,84,59,32,30.39,30.22,13,2,13,0.00
2013-1-6,53,43,37,39,34,30,90,72,52,30.22,30.04,15,2,15,0.03
2013-1-7,51,39,27,34,29,25,92,70,45,30.44,30.17,10,1,10,0.00
2013-1-8,54,36,23,42,31,21,95,84,60,30.48,30.37,14,1,14,0.00
2013-1-9,66,48,32,54,43,30,97,85,63,30.43,30.33,22,3,22,0.00
2013-1-10,60,49,38,44,39,34,98,72,43,30.54,30.41,8,0,8,0.00
2013-1-11,44,41,38,44,40,35,99,95,83,30.43,30.13,9,1,9,0.13
2013-1-12,74,58,44,65,56,44,100,92,66,30.15,30.07,10,1,10,0.00
2013-1-13,73,61,51,63,58,50,100,89,68,30.09,29.99,20,3,20,0.01
2013-1-14,63,58,47,62,57,46,99,96,89,30.23,30.01,16,2,16,1.29
2013-1-15,47,42,39,46,41,38,98,98,97,30.27,30.09,10,1,10,2.34
2013-1-16,48,43,38,48,42,38,99,98,97,30.11,29.95,18,1,18,0.76
2013-1-17,48,43,34,47,42,33,99,98,94,30.10,29.96,11,1,11,0.95
2013-1-18,43,35,27,34,29,24,99,81,48,30.52,30.15,6,0,6,0.38
2013-1-19,52,38,25,35,29,24,97,72,44,30.48,30.10,16,4,16,0.34
2013-1-20,58,44,32,36,31,29,87,62,34,30.10,29.97,25,5,25,0.05
2013-1-21,57,40,25,34,25,10,95,60,29,30.07,29.84,29,5,30,0.00
2013-1-22,36,28,20,12,4,-3,63,36,23,30.29,29.97,21,4,21,0.00
2013-1-23,36,28,20,24,10,1,78,48,27,30.36,30.05,18,3,18,0.00
2013-1-24,33,28,18,23,13,2,82,54,30,30.53,29.98,14,2,14,0.00
2013-1-25,27,21,16,25,17,10,92,84,54,30.52,30.09,17,3,21,0.00
2013-1-26,40,31,23,30,25,22,95,80,59,30.42,30.08,8,1,9,0.08
2013-1-27,37,30,22,29,24,19,92,80,64,30.61,30.42,10,1,10,0.03
2013-1-28,56,42,30,45,38,28,96,84,62,30.48,30.18,22,5,22,0.13
2013-1-29,72,56,44,55,48,42,94,77,46,30.18,30.00,17,4,17,0.00
2013-1-30,71,64,54,65,61,50,97,88,73,30.00,29.32,29,9,29,0.19
2013-1-31,54,42,31,52,28,19,96,58,39,29.95,29.35,23,8,31,0.83
2013-2-1,37,31,22,30,14,5,80,51,33,30.39,29.81,26,6,26,0.00
2013-2-2,37,34,17,25,18,13,89,53,39,30.39,30.02,16,3,16,0.00
2013-2-3,45,38,31,30,26,21,89,64,47,30.02,29.83,21,4,22,0.00
2013-2-4,42,34,23,29,22,18,86,62,46,30.14,29.95,13,2,14,0.00
2013-2-5,59,46,38,40,33,28,71,59,44,29.95,29.86,16,4,20,0.00
2013-2-6,57,46,31,35,31,27,88,60,32,30.30,29.93,9,2,11,0.00
2013-2-7,42,37,31,35,32,26,95,80,65,30.37,30.09,7,1,9,0.27
2013-2-8,57,42,35,46,35,27,97,79,47,30.09,29.81,20,3,21,0.25
2013-2-9,52,38,27,27,21,15,84,53,24,30.35,30.04,13,2,13,0.00
2013-2-10,51,37,23,38,24,20,94,64,30,30.49,30.20,13,2,13,0.05
2013-2-11,56,47,38,54,45,37,99,93,67,30.20,29.88,21,5,21,0.16
2013-2-12,58,49,40,41,31,25,78,51,29,30.05,29.90,16,3,16,0.00
2013-2-13,48,45,41,45,42,35,97,91,75,29.94,29.61,16,2,16,0.15
2013-2-14,53,39,29,35,31,27,96,74,39,30.06,29.84,13,1,13,0.00
2013-2-15,61,44,27,41,33,26,96,68,35,30.08,29.90,21,4,21,0.01
2013-2-16,43,36,29,35,28,16,92,73,50,29.99,29.83,9,1,9,0.01
2013-2-17,34,28,19,18,11,4,81,50,31,30.27,29.92,25,3,25,0.00
2013-2-18,54,35,14,26,19,12,91,57,30,30.40,30.17,18,3,18,0.00
2013-2-19,47,41,37,43,32,14,95,72,31,30.19,29.82,23,7,23,0.07
2013-2-20,50,40,33,19,14,5,53,36,16,30.16,29.95,20,4,20,0.00
2013-2-21,53,38,22,27,20,16,87,52,25,30.27,30.11,12,1,12,0.00
2013-2-22,40,36,31,33,28,20,91,72,46,30.35,30.15,9,1,9,0.06
2013-2-23,49,40,35,45,38,33,97,93,82,30.16,29.81,6,1,6,0.13
2013-2-24,59,46,32,42,32,23,98,64,27,30.05,29.78,20,2,20,0.00
2013-2-25,43,34,28,28,25,22,90,69,47,30.23,30.05,10,1,10,0.00
2013-2-26,41,36,28,40,34,24,98,90,72,30.18,29.61,8,1,8,0.89
2013-2-27,56,47,38,42,38,34,99,74,48,29.76,29.60,18,3,19,0.06
2013-2-28,47,41,37,38,30,26,96,66,45,29.83,29.67,19,5,21,0.00
2013-3-1,44,38,29,32,29,25,90,68,56,29.92,29.81,9,1,9,0.00
2013-3-2,41,37,32,30,25,20,77,62,52,29.92,29.83,11,1,11,0.00
2013-3-3,42,33,27,23,20,15,73,58,43,29.98,29.86,22,2,22,0.00
2013-3-4,51,36,26,22,16,12,76,47,23,30.10,29.98,16,2,16,0.00
2013-3-5,49,40,30,41,32,21,97,76,40,30.08,29.63,11,1,11,0.64
2013-3-6,47,39,34,35,32,29,97,77,58,30.06,29.58,19,4,19,0.15
2013-3-7,48,41,34,32,29,26,73,63,48,30.24,30.05,15,3,15,0.00
2013-3-8,54,43,31,29,27,24,84,56,34,30.31,30.18,17,2,17,0.00
2013-3-9,63,46,32,34,30,26,84,58,26,30.36,30.23,9,1,9,0.00
2013-3-10,68,49,30,37,32,27,92,58,26,30.31,30.17,13,2,13,0.00
2013-3-11,64,51,35,54,43,30,90,73,57,30.20,29.88,21,3,21,0.00
2013-3-12,62,56,41,58,47,33,97,73,43,29.96,29.70,20,4,20,0.73
2013-3-13,50,40,29,35,27,17,96,63,36,30.15,29.95,27,4,27,0.00
2013-3-14,50,41,31,24,19,16,71,43,26,30.23,30.11,21,4,21,0.00
2013-3-15,62,46,28,37,29,19,80,52,35,30.16,29.86,24,5,24,0.00
2013-3-16,78,59,38,52,45,34,89,61,36,29.86,29.57,26,6,26,0.00
2013-3-17,64,44,37,51,42,36,96,91,63,30.19,29.79,13,1,13,0.18
2013-3-18,38,36,34,37,36,34,97,97,96,30.22,29.88,10,1,10,0.29
2013-3-19,64,48,35,45,28,7,99,58,18,30.03,29.80,29,5,29,0.00
2013-3-20,56,46,36,31,15,7,62,30,16,30.07,29.76,24,4,24,0.00
2013-3-21,48,36,28,28,17,11,62,48,32,29.99,29.75,25,3,25,0.00
2013-3-22,53,36,21,24,16,12,80,48,21,30.07,29.94,18,2,18,0.00
2013-3-23,58,42,28,34,27,20,85,59,32,30.06,29.90,12,1,12,0.00
2013-3-24,40,35,31,33,32,27,97,89,62,29.93,29.60,9,1,9,0.50
2013-3-25,47,38,32,38,30,26,98,77,49,29.78,29.55,26,4,26,0.30
2013-3-26,48,40,31,32,28,26,88,62,47,30.11,29.77,12,2,13,0.00
2013-3-27,49,40,33,28,26,24,79,60,39,30.22,30.10,15,3,22,0.00
2013-3-28,54,41,27,30,26,23,90,58,34,30.28,30.17,19,2,19,0.00
2013-3-29,61,44,27,33,28,24,90,58,25,30.32,30.15,18,1,18,0.00
2013-3-30,65,49,32,37,32,28,88,57,25,30.24,30.06,16,1,16,0.00
2013-3-31,62,53,42,55,48,36,97,84,72,30.06,29.76,16,4,19,0.19
2013-4-1,67,55,40,52,42,31,96,64,37,29.97,29.80,28,4,28,0.00
2013-4-2,57,45,29,32,25,16,92,49,21,30.16,29.97,20,2,20,0.00
2013-4-3,58,44,28,28,22,16,86,47,21,30.33,30.15,14,1,14,0.00
2013-4-4,46,38,33,34,25,18,97,63,39,30.40,29.99,11,1,14,0.97
2013-4-5,64,48,35,47,38,34,97,72,34,30.02,29.89,12,1,12,0.32
2013-4-6,63,50,33,37,31,26,93,53,26,30.27,30.02,13,2,13,0.00
2013-4-7,72,56,39,47,41,30,90,60,39,30.24,30.05,26,5,26,0.00
2013-4-8,79,63,43,55,49,40,95,64,37,30.11,29.98,24,5,24,0.00
2013-4-9,85,71,53,58,54,49,89,59,35,30.13,29.99,19,5,20,0.00
2013-4-10,88,78,63,61,58,54,78,51,33,30.03,29.86,22,6,22,0.00
2013-4-11,82,72,63,63,60,58,83,66,47,29.90,29.71,25,6,25,0.00
2013-4-12,82,70,60,68,58,40,98,68,33,29.73,29.54,24,6,31,0.81
2013-4-13,76,61,42,46,39,30,93,47,22,29.97,29.73,19,3,19,0.00
2013-4-14,79,64,42,48,41,33,91,48,23,30.08,29.97,17,3,17,0.00
2013-4-15,68,60,54,58,55,48,96,85,49,30.21,30.01,18,1,18,0.22
2013-4-16,77,66,59,62,60,56,96,81,56,30.28,30.14,15,2,15,0.00
2013-4-17,82,69,55,65,60,54,97,76,45,30.18,30.08,8,1,8,0.00
2013-4-18,78,69,59,64,60,56,97,76,47,30.14,29.97,19,4,19,0.03
2013-4-19,77,68,56,68,63,48,96,84,71,29.97,29.63,50,8,50,0.23
2013-4-20,64,53,41,48,36,30,89,55,31,30.27,29.78,17,2,17,0.00
2013-4-21,60,49,37,40,35,30,92,62,41,30.51,30.27,15,2,15,0.00
2013-4-22,62,50,34,41,35,26,96,62,28,30.49,30.28,14,2,14,0.00
2013-4-23,68,56,48,53,46,40,86,70,48,30.31,30.08,11,1,11,0.00
2013-4-24,75,65,44,58,54,43,98,70,52,30.11,29.91,28,8,28,0.00
2013-4-25,70,56,43,55,39,30,84,56,24,30.28,30.00,14,1,14,0.00
2013-4-26,70,54,35,48,38,33,96,62,28,30.44,30.28,11,1,11,0.00
2013-4-27,71,58,46,55,49,43,94,74,43,30.35,30.24,14,1,14,0.00
2013-4-28,57,54,53,54,53,51,98,95,89,30.24,30.06,15,1,15,0.56
2013-4-29,66,57,52,60,55,51,99,93,77,30.07,29.97,8,0,8,0.29
2013-4-30,68,60,51,60,56,50,99,89,71,30.20,30.01,7,1,11,0.00
2013-5-1,71,61,55,58,54,48,96,80,55,30.34,30.19,16,1,16,0.00
2013-5-2,68,59,52,58,51,45,92,75,58,30.34,30.25,11,1,11,0.00
2013-5-3,67,56,44,55,49,43,99,79,58,30.30,30.18,17,2,17,0.00
2013-5-4,60,52,46,52,47,43,91,83,68,30.24,30.11,16,1,16,0.00
2013-5-5,57,53,46,54,48,40,95,84,74,30.13,30.01,16,2,16,0.02
2013-5-6,60,56,53,60,56,52,99,98,94,30.03,29.84,17,2,17,1.31
2013-5-7,69,60,53,61,56,51,100,90,56,29.92,29.83,13,1,13,0.04
2013-5-8,58,54,49,57,54,48,98,97,94,29.99,29.90,5,0,5,0.35
2013-5-9,81,62,43,64,54,42,100,80,41,30.04,29.96,12,1,12,0.01
2013-5-10,83,69,52,65,59,51,99,75,46,30.04,29.89,24,2,24,0.00
2013-5-11,79,70,62,66,62,59,96,79,55,29.90,29.72,20,3,20,0.01
2013-5-12,67,60,44,61,46,34,90,62,32,30.03,29.77,21,2,21,0.00
2013-5-13,66,51,36,45,37,29,98,63,29,30.18,30.03,17,1,17,0.00
2013-5-14,70,57,35,46,41,34,97,59,35,30.24,30.02,17,3,17,0.00
2013-5-15,88,70,51,67,57,45,85,66,46,30.03,29.83,20,5,20,0.00
2013-5-16,84,73,56,66,61,54,96,68,46,29.95,29.86,13,3,18,0.00
2013-5-17,84,72,60,68,62,58,97,74,45,30.10,29.94,21,1,21,0.41
2013-5-18,69,65,61,68,64,61,99,97,95,30.15,30.05,12,1,12,0.24
2013-5-19,76,67,63,70,66,62,99,94,76,30.13,30.02,13,2,13,0.40
2013-5-20,78,69,66,71,67,65,99,95,76,30.08,29.98,13,1,13,0.18
2013-5-21,87,75,67,75,70,67,99,86,57,30.01,29.88,9,2,9,0.01
2013-5-22,84,74,66,73,69,65,98,85,64,29.96,29.84,19,5,19,0.09
2013-5-23,78,69,63,72,66,62,99,93,80,29.90,29.75,15,3,17,0.43
2013-5-24,65,60,48,62,52,40,98,76,42,30.17,29.79,19,2,19,0.01
2013-5-25,74,56,40,46,40,31,96,60,28,30.25,30.13,15,1,15,0.00
2013-5-26,76,62,47,55,47,41,94,63,32,30.25,30.13,10,1,10,0.00
2013-5-27,79,63,48,61,54,46,95,74,49,30.26,30.12,14,1,15,0.00
2013-5-28,84,71,55,70,63,54,98,78,53,30.19,30.08,19,4,19,0.00
2013-5-29,87,77,64,71,66,62,95,70,47,30.18,30.09,16,5,16,0.00
2013-5-30,86,73,60,70,65,59,98,77,51,30.22,30.13,15,3,15,0.00
2013-5-31,81,67,59,71,63,58,98,89,68,30.17,30.15,12,2,12,0.00
2013-6-1,88,76,64,72,67,62,97,76,46,30.16,29.95,9,4,22,0.00
2013-6-2,82,73,66,71,68,64,98,86,68,29.97,29.86,20,5,20,0.18
2013-6-3,82,75,65,73,70,64,99,83,66,29.92,29.80,11,2,15,0.54
2013-6-4,77,70,60,67,64,59,99,83,66,30.09,29.93,11,1,11,0.09
2013-6-5,78,68,57,68,63,57,98,85,62,30.13,30.00,12,1,12,0.01
2013-6-6,71,67,62,70,66,60,99,96,75,30.01,29.78,11,2,11,0.02
2013-6-7,73,70,66,72,69,66,100,99,97,29.82,29.59,9,1,9,0.60
2013-6-8,84,71,63,68,64,59,100,81,46,30.02,29.78,11,1,11,0.07
2013-6-9,86,74,62,73,68,62,99,83,59,30.12,30.01,6,2,22,0.01
2013-6-10,80,73,70,75,71,69,98,93,84,30.06,29.81,11,5,27,0.56
2013-6-11,83,73,67,70,66,64,99,80,58,29.92,29.83,6,2,16,0.07
2013-6-12,87,75,64,77,69,63,97,83,64,29.93,29.81,15,2,15,0.02
2013-6-13,92,80,67,76,72,59,99,78,49,29.81,29.55,25,6,26,0.25
2013-6-14,80,68,60,63,59,55,93,75,52,29.98,29.69,13,1,13,0.00
2013-6-15,84,71,58,67,62,56,96,74,42,30.10,29.99,5,1,8,0.00
2013-6-16,86,75,64,72,67,62,94,77,58,30.05,29.93,11,5,18,0.00
2013-6-17,86,75,68,74,70,67,97,84,55,29.99,29.88,8,1,15,0.00
2013-6-18,78,72,66,74,71,66,99,96,84,29.93,29.76,13,2,13,0.54
2013-6-19,78,70,61,70,66,61,100,89,71,30.12,29.87,11,1,11,0.01
2013-6-20,80,70,62,69,65,61,99,86,61,30.24,30.11,9,1,9,0.00
2013-6-21,82,70,57,67,60,53,98,75,49,30.26,30.18,11,1,11,0.00
2013-6-22,84,68,60,74,66,58,99,92,68,30.23,30.10,8,0,14,0.03
2013-6-23,88,74,66,73,69,66,99,85,55,30.18,30.07,13,2,13,0.00
2013-6-24,88,77,66,76,71,65,99,82,58,30.15,30.03,10,3,13,0.06
2013-6-25,89,78,69,76,71,68,99,83,56,30.07,29.93,13,2,14,0.01
2013-6-26,91,75,68,78,71,67,99,88,58,29.96,29.83,14,3,14,0.79
2013-6-27,84,77,68,76,72,67,99,86,71,29.89,29.68,15,6,16,0.04
2013-6-28,91,82,70,74,71,68,97,70,48,29.70,29.50,20,6,20,0.00
2013-6-29,87,76,67,74,68,65,98,77,53,29.63,29.54,18,3,18,0.00
2013-6-30,79,75,70,74,72,68,98,91,82,29.74,29.66,8,2,8,0.00
2013-7-1,83,75,69,74,72,69,100,91,71,29.94,29.80,6,2,15,0.12
2013-7-2,77,74,72,75,73,71,100,97,92,30.15,29.95,6,3,16,0.18
2013-7-3,79,74,71,76,74,71,100,98,90,30.21,30.10,4,2,11,0.17
2013-7-4,86,77,72,77,74,72,100,90,66,30.24,30.18,15,2,18,0.16
2013-7-5,85,77,70,79,74,70,100,91,72,30.26,30.17,15,3,15,0.05
2013-7-6,87,77,69,76,73,69,100,87,63,30.25,30.12,15,2,16,0.04
2013-7-7,86,74,71,77,74,71,100,97,71,30.18,30.07,14,3,18,0.50
2013-7-8,87,77,69,77,72,69,100,88,62,30.17,30.09,8,1,9,0.19
2013-7-9,89,80,71,79,75,71,100,85,63,30.14,30.04,10,2,11,0.00
2013-7-10,86,76,71,80,74,71,100,93,77,30.08,29.92,15,2,15,0.13
2013-7-11,84,76,70,77,74,70,100,93,74,29.96,29.87,9,1,12,1.70
2013-7-12,74,70,68,70,69,67,100,96,86,30.06,29.88,8,0,8,0.15
2013-7-13,78,72,68,76,72,68,100,97,88,30.21,30.05,11,1,11,0.05
2013-7-14,86,77,72,77,74,72,100,90,68,30.33,30.21,15,2,15,0.01
2013-7-15,90,78,68,78,73,68,100,86,57,30.34,30.25,7,0,7,0.00
2013-7-16,94,79,67,81,74,67,100,86,53,30.28,30.19,7,0,7,0.00
2013-7-17,92,80,73,81,75,72,100,87,60,30.24,30.11,10,0,13,0.21
2013-7-18,94,82,72,81,76,72,100,85,57,30.16,30.03,5,0,5,0.00
2013-7-19,91,80,73,80,76,73,100,90,64,30.08,29.95,15,3,18,0.00
2013-7-20,88,79,74,80,75,73,98,89,70,29.99,29.89,15,5,15,0.00
2013-7-21,89,76,70,80,74,70,100,93,65,29.97,29.91,12,2,12,0.60
2013-7-22,86,77,70,79,74,70,100,91,72,29.96,29.80,16,2,16,0.00
2013-7-23,89,79,72,78,74,70,100,85,60,29.81,29.71,13,2,13,0.00
2013-7-24,88,76,68,77,72,68,100,87,62,29.90,29.73,9,0,10,0.00
2013-7-25,81,74,65,70,67,64,100,82,64,30.05,29.88,9,1,9,0.25
2013-7-26,83,73,63,72,67,62,100,85,65,30.12,30.03,11,1,11,0.00
2013-7-27,74,70,66,72,70,66,100,98,93,30.06,29.93,9,1,10,0.15
2013-7-28,86,74,68,76,71,68,100,91,65,30.00,29.91,12,2,12,0.12
2013-7-29,84,72,64,70,66,59,100,82,48,30.19,30.00,8,0,8,0.00
2013-7-30,83,71,58,72,64,58,100,82,55,30.25,30.16,8,1,8,0.01
2013-8-1,86,74,68,76,71,68,100,91,66,30.00,29.85,3,1,10,0.11
2013-8-2,86,74,65,74,69,65,100,85,57,30.03,29.92,4,1,11,0.00
2013-8-3,87,75,66,75,71,66,100,87,59,30.01,29.92,5,1,12,0.00
2013-8-4,84,75,66,72,68,63,100,81,52,30.05,29.92,2,0,9,0.00
2013-8-5,79,70,62,69,65,61,99,83,67,30.12,30.02,4,1,9,0.00
2013-8-6,81,74,66,73,70,65,98,88,75,30.05,29.98,8,4,15,0.00
2013-8-7,82,77,66,77,73,66,100,89,79,30.09,30.03,12,2,12,0.02
2013-8-8,84,79,70,77,75,70,100,89,75,30.07,29.99,14,2,14,0.07
2013-8-9,90,79,72,80,75,72,100,89,67,30.02,29.95,20,5,20,0.01
2013-8-10,90,78,73,80,75,72,100,90,67,30.08,30.01,13,2,13,0.63
2013-8-11,86,77,71,79,76,71,100,95,73,30.11,30.02,6,1,10,0.67
2013-8-12,90,78,70,78,74,70,100,87,62,30.06,29.94,11,1,19,1.15
2013-8-13,84,74,69,78,73,69,100,96,75,29.95,29.80,11,2,11,0.18
2013-8-14,78,70,61,70,63,57,100,80,51,30.13,29.85,7,0,7,0.00
2013-8-15,75,66,55,63,59,55,100,80,56,30.20,30.11,10,1,10,0.00
2013-8-16,74,62,54,65,59,54,100,90,63,30.22,30.14,9,0,9,0.00
2013-8-17,67,62,57,66,62,57,100,98,87,30.25,30.19,5,0,5,0.49
2013-8-18,71,66,64,69,66,64,100,99,90,30.24,30.15,7,0,7,1.09
2013-8-19,76,68,65,73,68,64,100,98,89,30.22,30.10,8,1,8,0.18
2013-8-20,83,72,64,76,70,64,100,93,71,30.20,30.12,8,0,8,0.01
2013-8-21,84,69,66,76,69,66,100,98,76,30.23,30.10,4,0,10,0.00
2013-8-22,88,75,66,77,72,66,100,91,63,30.15,29.99,9,0,9,0.09
2013-8-23,84,69,63,76,69,63,100,98,70,30.13,29.95,5,0,14,0.57
2013-8-24,81,69,58,68,63,58,100,84,53,30.33,30.13,13,0,13,0.00
2013-8-25,79,67,57,69,62,57,100,87,60,30.42,30.32,10,1,10,0.00
2013-8-26,84,68,54,70,64,54,100,90,50,30.34,30.11,3,0,8,0.00
2013-8-27,87,75,63,78,71,63,100,89,67,30.11,29.96,10,1,10,0.00
2013-8-28,84,74,67,79,72,66,100,96,82,30.00,29.85,12,1,12,0.05
2013-8-29,85,81,69,78,75,69,100,84,74,30.03,29.84,12,2,12,0.00
2013-8-30,85,74,66,75,71,66,100,89,65,30.08,29.93,10,1,10,0.00
2013-8-31,87,72,65,78,70,65,100,94,72,29.95,29.84,17,1,17,0.21
2013-9-1,87,75,67,78,73,67,100,94,74,29.90,29.78,7,2,12,0.00
2013-9-2,88,77,67,78,73,67,100,89,61,29.88,29.79,9,1,9,0.00
2013-9-3,88,78,69,77,73,69,100,87,63,29.92,29.79,8,0,8,0.00
2013-9-4,84,74,60,69,66,60,100,78,56,30.11,29.96,9,1,9,0.00
2013-9-5,86,71,59,72,65,59,100,83,51,30.12,30.04,11,0,11,0.00
2013-9-6,78,65,56,64,61,56,100,87,55,30.23,30.12,10,0,10,0.00
2013-9-7,81,73,54,71,66,54,100,81,63,30.16,29.98,12,2,15,0.01
2013-9-8,87,75,59,74,67,59,100,80,58,29.98,29.92,6,0,6,0.01
2013-9-9,83,75,66,74,71,66,100,87,71,30.17,30.00,8,1,8,0.00
2013-9-10,89,80,64,76,73,64,100,82,62,30.23,30.13,10,2,12,0.00
2013-9-11,90,73,66,77,71,66,100,94,62,30.19,30.05,9,1,14,0.00
2013-9-12,90,81,70,79,75,70,100,82,63,30.05,29.83,10,1,10,0.01
2013-9-13,80,73,60,70,61,55,100,68,46,29.93,29.77,12,1,12,0.01
2013-9-14,74,60,50,58,55,50,100,85,50,30.17,29.94,3,0,9,0.04
2013-9-15,79,62,48,65,57,48,100,87,54,30.27,30.13,13,2,13,0.00
2013-9-16,78,66,57,71,63,57,100,92,70,30.24,30.10,11,0,11,0.01
2013-9-17,73,62,51,61,56,51,100,84,55,30.39,30.24,12,1,12,0.01
2013-9-18,72,62,45,62,57,45,100,83,62,30.36,30.21,7,1,7,0.00
2013-9-19,74,68,59,67,63,59,100,85,70,30.22,30.09,9,1,9,0.00
2013-9-20,69,66,65,68,66,64,100,100,94,30.10,29.98,7,0,7,0.34
2013-9-21,71,67,62,71,67,62,100,100,98,29.98,29.73,21,2,21,0.54
2013-9-22,75,63,56,65,60,56,100,91,60,29.94,29.76,7,0,7,0.01
2013-9-23,72,60,54,61,57,52,100,89,63,30.10,29.94,10,0,10,0.00
2013-9-24,77,66,52,66,60,52,100,83,63,30.13,29.95,7,1,7,0.00
2013-9-25,68,59,52,65,59,52,100,99,87,29.98,29.90,1,0,5,0.03
2013-9-26,75,64,54,64,60,54,100,88,53,30.08,29.92,6,0,6,0.00
2013-9-27,74,61,50,62,56,50,100,86,55,30.23,30.08,10,0,10,0.01
2013-9-28,68,59,50,61,56,50,100,91,70,30.31,30.22,8,0,10,0.00
2013-9-29,73,60,50,61,55,50,100,87,55,30.23,30.08,2,0,8,0.00
2013-9-30,77,61,49,62,56,49,100,87,54,30.12,30.01,3,1,8,0.01
2013-10-1,81,63,50,67,59,50,100,89,55,30.13,30.04,2,0,9,0.00
2013-10-2,84,67,52,68,62,52,100,85,52,30.15,30.06,8,0,8,0.00
2013-10-3,80,62,56,68,60,56,100,95,64,30.15,30.09,5,0,5,0.00
2013-10-4,87,78,56,71,67,56,100,71,51,30.14,30.05,10,1,10,0.00
2013-10-5,88,76,60,72,68,60,100,79,49,30.12,30.03,9,1,9,0.00
2013-10-6,84,71,58,71,65,58,100,85,58,30.06,29.92,20,2,20,0.00
2013-10-7,73,67,55,72,65,52,100,93,75,30.06,29.80,20,2,24,0.71
2013-10-8,67,57,49,54,51,49,99,82,54,30.27,30.05,16,1,16,0.00
2013-10-9,67,57,51,57,53,50,96,86,68,30.27,30.20,10,1,10,0.00
2013-10-10,65,58,53,63,57,52,100,97,91,30.17,29.99,2,0,9,0.43
2013-10-11,75,68,60,66,63,59,100,84,72,29.99,29.93,7,0,7,0.00
2013-10-12,67,63,61,67,63,60,100,99,94,30.13,29.98,1,0,6,0.10
2013-10-13,65,62,59,64,62,59,100,99,98,30.27,30.13,9,0,9,0.13
2013-10-14,64,59,53,62,58,53,100,97,91,30.30,30.22,6,0,6,0.02
2013-10-15,72,59,48,61,56,48,100,89,60,30.26,30.10,10,0,10,0.00
2013-10-16,73,66,59,64,62,58,100,87,70,30.11,29.95,7,1,8,0.00
2013-10-17,68,63,60,66,63,60,100,98,88,29.97,29.83,6,3,16,0.03
2013-10-18,69,57,45,59,51,45,100,84,53,30.08,29.91,8,0,10,0.00
2013-10-19,61,55,49,60,54,49,100,99,93,30.01,29.84,9,1,9,0.02
2013-10-20,64,51,40,52,44,38,100,78,41,30.15,29.94,10,0,12,0.01
2013-10-21,67,46,35,53,44,35,100,91,58,30.20,30.01,16,1,16,0.00
2013-10-22,70,58,48,57,52,48,100,83,53,30.01,29.84,16,1,16,0.00
2013-10-23,64,58,50,52,46,40,100,66,48,29.82,29.71,27,3,27,0.00
2013-10-24,54,46,31,39,36,30,99,69,49,30.22,30.03,21,3,21,0.00
2013-10-25,55,41,29,37,33,29,100,77,42,30.40,30.22,13,1,13,0.00
2013-10-26,58,43,25,38,32,25,99,69,41,30.39,30.07,20,5,20,0.00
2013-10-27,67,52,35,47,41,34,98,70,42,30.15,30.05,16,2,16,0.00
2013-10-28,70,54,39,56,48,38,100,84,54,30.28,30.13,9,0,9,0.01
2013-10-29,71,61,54,56,55,52,100,81,56,30.37,30.27,8,1,8,0.00
2013-10-30,55,55,54,54,53,53,97,95,93,30.30,30.27,0,0,1,0.00
2013-10-31,71,66,55,63,60,55,100,83,69,30.19,29.84,16,5,21,0.00
2013-11-1,70,69,67,66,65,63,89,85,82,29.84,29.70,29,10,29,0.00
2013-11-2,69,59,44,58,42,38,100,57,34,29.97,29.69,19,3,19,0.01
2013-11-3,62,48,36,44,39,34,99,76,42,30.24,29.97,14,1,14,0.00
2013-11-4,54,45,32,35,33,30,96,63,43,30.61,30.43,12,1,12,0.00
2013-11-5,58,47,35,46,39,31,90,73,57,30.63,30.49,3,0,6,0.00
2013-11-6,71,58,49,55,51,45,98,79,57,30.49,30.16,10,1,10,0.00
2013-11-7,66,60,45,58,51,41,100,74,49,30.13,29.96,18,3,20,0.00
2013-11-8,55,44,29,35,30,27,97,62,36,30.37,30.16,16,2,16,0.00
2013-11-9,55,42,26,35,30,25,98,68,38,30.42,30.17,15,4,20,0.00
2013-11-10,70,52,42,42,32,26,67,49,23,30.30,30.07,24,3,25,0.00
2013-11-11,58,42,29,35,30,26,93,66,34,30.37,30.22,16,2,16,0.00
2013-11-12,55,41,36,42,30,20,86,63,49,30.43,30.05,13,2,13,0.01
2013-11-13,46,33,24,23,21,19,87,63,33,30.58,30.47,3,1,12,0.00
2013-11-14,61,47,20,26,23,16,94,44,20,30.50,30.34,13,3,13,0.01
2013-11-15,60,45,28,49,34,24,99,69,35,30.36,30.23,17,2,17,0.05
2013-11-16,56,53,50,56,53,49,100,100,98,30.31,30.25,5,0,5,0.16
2013-11-17,63,58,55,63,58,55,100,99,93,30.26,29.85,20,2,20,0.03
2013-11-18,69,61,49,65,46,30,100,62,28,30.00,29.79,23,4,23,0.09
2013-11-19,54,45,36,34,31,29,84,60,41,30.37,30.00,12,1,12,0.00
2013-11-20,51,41,33,32,30,28,86,65,44,30.53,30.37,11,1,11,0.00
2013-11-21,53,45,35,45,40,31,92,82,71,30.57,30.44,5,0,5,0.00
2013-11-22,65,56,47,59,53,44,94,88,79,30.44,30.08,19,5,22,0.00
2013-11-23,60,51,37,58,38,21,95,63,35,30.25,30.08,13,2,13,0.00
2013-11-24,37,30,21,21,12,5,81,48,29,30.59,30.25,13,2,13,0.00
2013-11-25,38,28,16,26,16,12,93,62,37,30.62,30.42,12,1,12,0.00
2013-11-26,43,37,32,43,36,18,100,96,47,30.42,29.64,9,0,9,2.13
2013-11-27,45,38,28,45,32,16,100,83,61,30.20,29.56,21,4,21,0.38
2013-11-28,43,32,22,26,21,16,89,66,42,30.49,30.20,10,1,12,0.00
2013-11-29,49,38,22,29,26,21,97,64,43,30.72,30.51,4,1,7,0.00
2013-11-30,45,32,23,28,25,21,95,78,46,30.73,30.42,9,0,9,0.00
2013-12-1,58,36,20,35,28,19,99,78,36,30.42,30.07,9,1,9,0.00
2013-12-2,56,43,27,43,37,26,98,81,56,30.07,29.88,3,0,4,0.00
2013-12-3,56,45,33,48,41,33,100,89,68,30.02,29.90,6,0,8,0.00
2013-12-4,62,54,47,57,53,46,100,95,82,30.10,30.01,12,1,12,0.00
2013-12-5,66,62,57,65,62,57,100,99,95,30.11,30.00,17,5,17,0.01
2013-12-6,76,69,49,67,64,49,100,87,69,30.06,29.91,27,8,27,0.31
2013-12-7,49,44,40,49,43,34,100,94,82,30.52,30.04,10,1,10,0.39
2013-12-8,40,33,31,35,32,30,100,95,78,30.54,30.33,9,0,9,0.52
2013-12-9,41,35,32,41,35,32,100,100,100,30.34,30.10,8,1,8,0.28
2013-12-10,48,38,30,45,34,22,100,86,62,30.33,29.99,22,2,22,0.34
2013-12-11,48,36,22,28,26,20,97,68,43,30.48,30.31,13,2,13,0.00
2013-12-12,41,34,26,26,20,12,86,58,31,30.47,30.32,14,1,15,0.00
2013-12-13,50,35,23,32,22,13,86,63,36,30.41,30.29,15,2,15,0.00
2013-12-14,38,36,35,37,34,28,100,93,72,30.33,29.81,7,0,7,0.61
2013-12-15,48,40,34,41,34,29,100,82,57,30.08,29.73,22,3,22,0.01
2013-12-16,50,38,30,37,32,28,97,81,56,30.19,30.07,14,2,14,0.00
2013-12-17,61,42,28,45,36,28,100,81,43,30.14,29.90,17,2,17,0.12
2013-12-18,48,37,29,33,25,22,87,63,36,30.30,30.06,18,3,18,0.01
2013-12-19,63,42,27,34,28,23,90,61,29,30.31,30.21,16,2,17,0.00
2013-12-20,64,52,34,50,40,31,88,64,44,30.23,30.10,22,5,22,0.00
2013-12-21,69,61,52,65,57,49,96,87,76,30.12,29.99,20,7,25,0.00
2013-12-22,71,65,60,69,64,60,100,96,80,30.08,29.95,23,6,23,1.01
2013-12-23,64,56,39,64,53,32,100,92,73,30.21,29.96,13,4,20,0.78
2013-12-24,44,36,25,32,25,14,87,67,43,30.51,30.21,21,2,21,0.01
2013-12-25,37,26,18,23,17,13,94,70,39,30.60,30.43,10,1,10,0.00
2013-12-26,53,33,18,31,23,17,97,72,39,30.43,30.29,10,1,18,0.00
2013-12-27,53,35,23,31,24,20,94,69,32,30.51,30.40,10,1,10,0.00
2013-12-28,57,40,23,41,29,22,97,69,35,30.44,30.21,17,2,17,0.11
2013-12-29,58,46,41,52,43,40,100,91,69,30.22,29.71,23,3,23,0.92
2013-12-30,50,42,36,44,37,32,99,82,66,30.18,29.93,16,1,16,0.00
2013-12-31,50,38,28,34,27,21,99,68,34,30.40,30.16,23,2,23,0.01
2014-1-1,47,33,24,32,27,21,96,80,49,30.44,30.17,12,1,12,0.00
2014-1-2,41,35,27,40,34,26,100,96,83,30.17,29.66,14,1,14,0.39